sensor_id;sensor_type;location;lat;lon;timestamp;temperature;humidity
39103;DHT22;24847;48.218;16.414;2023-09-19T00:03:23;21.30;99.90
39103;DHT22;24847;48.218;16.414;2023-09-19T00:08:26;21.30;99.90
39103;DHT22;24847;48.218;16.414;2023-09-19T00:13:30;21.20;99.90
39103;DHT22;24847;48.218;16.414;2023-09-19T00:18:32;21.10;99.90
39103;DHT22;24847;48.218;16.414;2023-09-19T00:23:35;21.00;99.90
39103;DHT22;24847;48.218;16.414;2023-09-19T00:28:39;20.80;99.90
39103;DHT22;24847;48.218;16.414;2023-09-19T00:33:41;20.60;99.90
39103;DHT22;24847;48.218;16.414;2023-09-19T00:38:43;20.70;99.90
39103;DHT22;24847;48.218;16.414;2023-09-19T00:43:48;20.40;99.90
39103;DHT22;24847;48.218;16.414;2023-09-19T00:48:51;20.20;99.90
39103;DHT22;24847;48.218;16.414;2023-09-19T00:53:54;20.40;99.90
39103;DHT22;24847;48.218;16.414;2023-09-19T00:58:57;20.10;99.90
39103;DHT22;24847;48.218;16.414;2023-09-19T01:04:00;20.40;99.90
39103;DHT22;24847;48.218;16.414;2023-09-19T01:09:03;20.20;99.90
39103;DHT22;24847;48.218;16.414;2023-09-19T01:14:15;20.10;99.90
39103;DHT22;24847;48.218;16.414;2023-09-19T01:25:40;20.30;99.90
39103;DHT22;24847;48.218;16.414;2023-09-19T01:30:57;20.40;99.90
39103;DHT22;24847;48.218;16.414;2023-09-19T01:36:00;20.20;99.90
39103;DHT22;24847;48.218;16.414;2023-09-19T01:41:11;19.70;99.90
39103;DHT22;24847;48.218;16.414;2023-09-19T01:46:19;19.60;99.90
39103;DHT22;24847;48.218;16.414;2023-09-19T01:51:31;19.50;99.90
39103;DHT22;24847;48.218;16.414;2023-09-19T01:56:37;19.10;99.90
39103;DHT22;24847;48.218;16.414;2023-09-19T02:01:46;19.30;99.90
39103;DHT22;24847;48.218;16.414;2023-09-19T02:06:50;19.00;99.90
39103;DHT22;24847;48.218;16.414;2023-09-19T02:11:52;19.20;99.90
39103;DHT22;24847;48.218;16.414;2023-09-19T02:16:57;19.00;99.90
39103;DHT22;24847;48.218;16.414;2023-09-19T02:22:00;19.20;99.90
39103;DHT22;24847;48.218;16.414;2023-09-19T02:27:04;18.70;99.90
39103;DHT22;24847;48.218;16.414;2023-09-19T02:32:08;18.80;99.90
39103;DHT22;24847;48.218;16.414;2023-09-19T02:37:10;18.50;99.90
39103;DHT22;24847;48.218;16.414;2023-09-19T02:42:14;18.60;99.90
39103;DHT22;24847;48.218;16.414;2023-09-19T02:47:18;18.40;99.90
39103;DHT22;24847;48.218;16.414;2023-09-19T02:52:20;18.80;99.90
39103;DHT22;24847;48.218;16.414;2023-09-19T02:57:23;18.70;99.90
39103;DHT22;24847;48.218;16.414;2023-09-19T03:02:27;19.00;99.90
39103;DHT22;24847;48.218;16.414;2023-09-19T03:07:29;19.20;99.90
39103;DHT22;24847;48.218;16.414;2023-09-19T03:12:31;19.10;99.90
39103;DHT22;24847;48.218;16.414;2023-09-19T03:17:35;19.10;99.90
39103;DHT22;24847;48.218;16.414;2023-09-19T03:22:38;19.10;99.90
39103;DHT22;24847;48.218;16.414;2023-09-19T03:27:40;19.40;99.90
39103;DHT22;24847;48.218;16.414;2023-09-19T03:32:48;19.20;99.90
39103;DHT22;24847;48.218;16.414;2023-09-19T03:37:50;19.20;99.90
39103;DHT22;24847;48.218;16.414;2023-09-19T03:42:53;19.10;99.90
39103;DHT22;24847;48.218;16.414;2023-09-19T03:47:57;19.00;99.90
39103;DHT22;24847;48.218;16.414;2023-09-19T03:52:59;19.20;99.90
39103;DHT22;24847;48.218;16.414;2023-09-19T03:58:01;19.30;99.90
39103;DHT22;24847;48.218;16.414;2023-09-19T04:03:06;18.70;99.90
39103;DHT22;24847;48.218;16.414;2023-09-19T04:08:08;19.20;99.90
39103;DHT22;24847;48.218;16.414;2023-09-19T04:13:10;19.40;99.90
39103;DHT22;24847;48.218;16.414;2023-09-19T04:18:14;19.10;99.90
39103;DHT22;24847;48.218;16.414;2023-09-19T04:23:16;18.90;99.90
39103;DHT22;24847;48.218;16.414;2023-09-19T04:28:20;19.10;99.90
39103;DHT22;24847;48.218;16.414;2023-09-19T04:33:24;18.90;99.90
39103;DHT22;24847;48.218;16.414;2023-09-19T04:38:27;19.00;99.90
39103;DHT22;24847;48.218;16.414;2023-09-19T04:43:30;19.10;99.90
39103;DHT22;24847;48.218;16.414;2023-09-19T04:48:33;19.10;99.90
39103;DHT22;24847;48.218;16.414;2023-09-19T04:53:36;19.20;99.90
39103;DHT22;24847;48.218;16.414;2023-09-19T04:58:38;19.10;99.90
39103;DHT22;24847;48.218;16.414;2023-09-19T05:03:42;18.80;99.90
39103;DHT22;24847;48.218;16.414;2023-09-19T05:08:45;18.60;99.90
39103;DHT22;24847;48.218;16.414;2023-09-19T05:13:50;18.70;99.90
39103;DHT22;24847;48.218;16.414;2023-09-19T05:18:54;18.80;99.90
39103;DHT22;24847;48.218;16.414;2023-09-19T05:23:56;19.00;99.90
39103;DHT22;24847;48.218;16.414;2023-09-19T05:28:59;19.10;99.90
39103;DHT22;24847;48.218;16.414;2023-09-19T05:34:05;18.80;99.90
39103;DHT22;24847;48.218;16.414;2023-09-19T05:39:07;18.70;99.90
39103;DHT22;24847;48.218;16.414;2023-09-19T05:44:10;18.70;99.90
39103;DHT22;24847;48.218;16.414;2023-09-19T05:49:14;18.70;99.90
39103;DHT22;24847;48.218;16.414;2023-09-19T05:54:16;18.70;99.90
39103;DHT22;24847;48.218;16.414;2023-09-19T05:59:19;18.50;99.90
39103;DHT22;24847;48.218;16.414;2023-09-19T06:04:22;18.40;99.90
39103;DHT22;24847;48.218;16.414;2023-09-19T06:09:26;18.50;99.90
39103;DHT22;24847;48.218;16.414;2023-09-19T06:14:28;18.60;99.90
39103;DHT22;24847;48.218;16.414;2023-09-19T06:19:33;18.50;99.90
39103;DHT22;24847;48.218;16.414;2023-09-19T06:24:35;18.70;99.90
39103;DHT22;24847;48.218;16.414;2023-09-19T06:29:37;18.90;99.90
39103;DHT22;24847;48.218;16.414;2023-09-19T06:34:40;19.10;99.90
39103;DHT22;24847;48.218;16.414;2023-09-19T06:39:44;19.10;99.90
39103;DHT22;24847;48.218;16.414;2023-09-19T06:44:46;19.20;99.90
39103;DHT22;24847;48.218;16.414;2023-09-19T06:49:50;19.40;99.90
39103;DHT22;24847;48.218;16.414;2023-09-19T06:54:52;19.30;99.90
39103;DHT22;24847;48.218;16.414;2023-09-19T06:59:54;19.30;99.90
39103;DHT22;24847;48.218;16.414;2023-09-19T07:04:58;19.50;99.90
39103;DHT22;24847;48.218;16.414;2023-09-19T07:10:01;19.50;99.90
39103;DHT22;24847;48.218;16.414;2023-09-19T07:15:04;19.20;99.90
39103;DHT22;24847;48.218;16.414;2023-09-19T07:20:24;19.40;99.90
39103;DHT22;24847;48.218;16.414;2023-09-19T07:25:27;19.40;99.90
39103;DHT22;24847;48.218;16.414;2023-09-19T07:30:30;19.40;99.90
39103;DHT22;24847;48.218;16.414;2023-09-19T07:35:34;19.40;99.90
39103;DHT22;24847;48.218;16.414;2023-09-19T07:40:36;19.40;99.90
39103;DHT22;24847;48.218;16.414;2023-09-19T07:45:38;19.40;99.90
39103;DHT22;24847;48.218;16.414;2023-09-19T07:50:42;19.50;99.90
39103;DHT22;24847;48.218;16.414;2023-09-19T07:55:45;19.50;99.90
39103;DHT22;24847;48.218;16.414;2023-09-19T08:00:48;19.60;99.90
39103;DHT22;24847;48.218;16.414;2023-09-19T08:05:52;19.60;99.90
39103;DHT22;24847;48.218;16.414;2023-09-19T08:10:55;19.60;99.90
39103;DHT22;24847;48.218;16.414;2023-09-19T08:15:58;19.60;99.90
39103;DHT22;24847;48.218;16.414;2023-09-19T08:21:01;19.60;99.90
39103;DHT22;24847;48.218;16.414;2023-09-19T08:26:04;19.70;99.90
39103;DHT22;24847;48.218;16.414;2023-09-19T08:31:08;19.90;99.90
39103;DHT22;24847;48.218;16.414;2023-09-19T08:36:12;20.10;99.90
39103;DHT22;24847;48.218;16.414;2023-09-19T08:41:17;20.20;99.90
39103;DHT22;24847;48.218;16.414;2023-09-19T08:46:20;20.80;99.90
39103;DHT22;24847;48.218;16.414;2023-09-19T08:51:31;20.60;99.90
39103;DHT22;24847;48.218;16.414;2023-09-19T08:56:37;20.40;99.90
39103;DHT22;24847;48.218;16.414;2023-09-19T09:01:42;20.20;99.90
39103;DHT22;24847;48.218;16.414;2023-09-19T09:06:49;20.10;99.90
39103;DHT22;24847;48.218;16.414;2023-09-19T09:11:54;20.10;99.90
39103;DHT22;24847;48.218;16.414;2023-09-19T09:16:57;20.00;99.90
39103;DHT22;24847;48.218;16.414;2023-09-19T09:22:08;20.00;99.90
39103;DHT22;24847;48.218;16.414;2023-09-19T09:27:13;19.90;99.90
39103;DHT22;24847;48.218;16.414;2023-09-19T09:32:20;19.80;99.90
39103;DHT22;24847;48.218;16.414;2023-09-19T09:37:25;19.80;99.90
39103;DHT22;24847;48.218;16.414;2023-09-19T09:42:34;19.80;99.90
39103;DHT22;24847;48.218;16.414;2023-09-19T09:47:43;20.00;99.90
39103;DHT22;24847;48.218;16.414;2023-09-19T09:52:57;20.30;99.90
39103;DHT22;24847;48.218;16.414;2023-09-19T09:58:17;20.50;99.90
39103;DHT22;24847;48.218;16.414;2023-09-19T10:03:20;20.60;99.90
39103;DHT22;24847;48.218;16.414;2023-09-19T10:08:25;21.30;99.90
39103;DHT22;24847;48.218;16.414;2023-09-19T10:13:35;22.50;99.90
39103;DHT22;24847;48.218;16.414;2023-09-19T10:18:42;22.00;99.90
39103;DHT22;24847;48.218;16.414;2023-09-19T10:23:46;22.20;99.90
39103;DHT22;24847;48.218;16.414;2023-09-19T10:28:50;22.70;99.90
39103;DHT22;24847;48.218;16.414;2023-09-19T10:33:55;22.70;99.90
39103;DHT22;24847;48.218;16.414;2023-09-19T10:39:00;22.70;99.90
39103;DHT22;24847;48.218;16.414;2023-09-19T10:44:06;22.70;99.90
39103;DHT22;24847;48.218;16.414;2023-09-19T10:49:10;23.00;99.90
39103;DHT22;24847;48.218;16.414;2023-09-19T10:54:16;23.30;99.90
39103;DHT22;24847;48.218;16.414;2023-09-19T10:59:21;23.40;99.90
39103;DHT22;24847;48.218;16.414;2023-09-19T11:04:26;23.40;99.90
39103;DHT22;24847;48.218;16.414;2023-09-19T11:09:52;23.40;99.90
39103;DHT22;24847;48.218;16.414;2023-09-19T11:14:55;23.70;99.90
39103;DHT22;24847;48.218;16.414;2023-09-19T11:25:45;23.80;99.90
39103;DHT22;24847;48.218;16.414;2023-09-19T11:30:51;23.30;99.90
39103;DHT22;24847;48.218;16.414;2023-09-19T11:36:02;23.10;99.90
39103;DHT22;24847;48.218;16.414;2023-09-19T11:41:37;22.90;99.90
39103;DHT22;24847;48.218;16.414;2023-09-19T11:46:52;22.60;99.90
39103;DHT22;24847;48.218;16.414;2023-09-19T11:51:56;22.70;99.90
39103;DHT22;24847;48.218;16.414;2023-09-19T11:57:03;22.60;99.90
39103;DHT22;24847;48.218;16.414;2023-09-19T12:02:07;23.00;99.90
39103;DHT22;24847;48.218;16.414;2023-09-19T12:07:12;22.90;99.90
39103;DHT22;24847;48.218;16.414;2023-09-19T12:12:21;22.90;99.90
39103;DHT22;24847;48.218;16.414;2023-09-19T12:17:24;23.10;99.90
39103;DHT22;24847;48.218;16.414;2023-09-19T12:22:39;23.30;99.90
39103;DHT22;24847;48.218;16.414;2023-09-19T12:27:46;23.20;99.90
39103;DHT22;24847;48.218;16.414;2023-09-19T12:32:50;23.40;99.90
39103;DHT22;24847;48.218;16.414;2023-09-19T12:37:52;23.40;99.90
39103;DHT22;24847;48.218;16.414;2023-09-19T12:42:57;23.50;99.90
39103;DHT22;24847;48.218;16.414;2023-09-19T12:48:19;23.60;99.90
39103;DHT22;24847;48.218;16.414;2023-09-19T12:53:27;23.40;99.90
39103;DHT22;24847;48.218;16.414;2023-09-19T12:58:31;23.20;99.90
39103;DHT22;24847;48.218;16.414;2023-09-19T13:03:35;23.20;99.90
39103;DHT22;24847;48.218;16.414;2023-09-19T13:08:40;23.30;99.90
39103;DHT22;24847;48.218;16.414;2023-09-19T13:13:47;23.20;99.90
39103;DHT22;24847;48.218;16.414;2023-09-19T13:18:55;23.10;99.90
39103;DHT22;24847;48.218;16.414;2023-09-19T13:24:19;23.00;99.90
39103;DHT22;24847;48.218;16.414;2023-09-19T13:29:23;22.80;99.90
39103;DHT22;24847;48.218;16.414;2023-09-19T13:34:25;22.50;99.90
39103;DHT22;24847;48.218;16.414;2023-09-19T13:39:30;22.30;99.90
39103;DHT22;24847;48.218;16.414;2023-09-19T13:44:34;22.20;99.90
39103;DHT22;24847;48.218;16.414;2023-09-19T13:49:36;22.10;99.90
39103;DHT22;24847;48.218;16.414;2023-09-19T13:54:39;22.10;99.90
39103;DHT22;24847;48.218;16.414;2023-09-19T13:59:43;22.20;99.90
39103;DHT22;24847;48.218;16.414;2023-09-19T14:04:45;22.20;99.90
39103;DHT22;24847;48.218;16.414;2023-09-19T14:09:48;22.20;99.90
39103;DHT22;24847;48.218;16.414;2023-09-19T14:14:51;22.30;99.90
39103;DHT22;24847;48.218;16.414;2023-09-19T14:19:56;22.30;99.90
39103;DHT22;24847;48.218;16.414;2023-09-19T14:24:58;22.10;99.90
39103;DHT22;24847;48.218;16.414;2023-09-19T14:30:03;22.40;99.90
39103;DHT22;24847;48.218;16.414;2023-09-19T14:35:07;22.60;99.90
39103;DHT22;24847;48.218;16.414;2023-09-19T14:40:11;22.70;99.90
39103;DHT22;24847;48.218;16.414;2023-09-19T14:45:17;22.70;99.90
39103;DHT22;24847;48.218;16.414;2023-09-19T14:50:19;22.70;99.90
39103;DHT22;24847;48.218;16.414;2023-09-19T14:55:23;22.90;99.90
39103;DHT22;24847;48.218;16.414;2023-09-19T15:00:29;22.90;99.90
39103;DHT22;24847;48.218;16.414;2023-09-19T15:05:33;22.70;99.90
39103;DHT22;24847;48.218;16.414;2023-09-19T15:10:36;22.80;99.90
39103;DHT22;24847;48.218;16.414;2023-09-19T15:15:40;22.80;99.90
39103;DHT22;24847;48.218;16.414;2023-09-19T15:20:44;22.90;99.90
39103;DHT22;24847;48.218;16.414;2023-09-19T15:25:48;22.90;99.90
39103;DHT22;24847;48.218;16.414;2023-09-19T15:30:59;22.90;99.90
39103;DHT22;24847;48.218;16.414;2023-09-19T15:36:05;22.80;99.90
39103;DHT22;24847;48.218;16.414;2023-09-19T15:41:12;22.80;99.90
39103;DHT22;24847;48.218;16.414;2023-09-19T15:46:17;22.80;99.90
39103;DHT22;24847;48.218;16.414;2023-09-19T15:51:22;22.70;99.90
39103;DHT22;24847;48.218;16.414;2023-09-19T15:56:25;22.70;99.90
39103;DHT22;24847;48.218;16.414;2023-09-19T16:01:30;22.60;99.90
39103;DHT22;24847;48.218;16.414;2023-09-19T16:06:34;22.60;99.90
39103;DHT22;24847;48.218;16.414;2023-09-19T16:11:37;22.50;99.90
39103;DHT22;24847;48.218;16.414;2023-09-19T16:16:44;22.50;99.90
39103;DHT22;24847;48.218;16.414;2023-09-19T16:21:48;22.50;99.90
39103;DHT22;24847;48.218;16.414;2023-09-19T16:26:51;22.50;99.90
39103;DHT22;24847;48.218;16.414;2023-09-19T16:31:55;22.40;99.90
39103;DHT22;24847;48.218;16.414;2023-09-19T16:37:00;22.30;99.90
39103;DHT22;24847;48.218;16.414;2023-09-19T16:42:03;22.30;99.90
39103;DHT22;24847;48.218;16.414;2023-09-19T16:47:08;22.20;99.90
39103;DHT22;24847;48.218;16.414;2023-09-19T16:52:12;22.20;99.90
39103;DHT22;24847;48.218;16.414;2023-09-19T16:57:15;22.00;99.90
39103;DHT22;24847;48.218;16.414;2023-09-19T17:02:20;22.00;99.90
39103;DHT22;24847;48.218;16.414;2023-09-19T17:07:24;21.90;99.90
39103;DHT22;24847;48.218;16.414;2023-09-19T17:12:28;21.90;99.90
39103;DHT22;24847;48.218;16.414;2023-09-19T17:17:33;21.70;99.90
39103;DHT22;24847;48.218;16.414;2023-09-19T17:22:36;21.70;99.90
39103;DHT22;24847;48.218;16.414;2023-09-19T17:27:39;21.80;99.90
39103;DHT22;24847;48.218;16.414;2023-09-19T17:32:46;21.70;99.90
39103;DHT22;24847;48.218;16.414;2023-09-19T17:37:52;21.60;99.90
39103;DHT22;24847;48.218;16.414;2023-09-19T17:42:56;21.50;99.90
39103;DHT22;24847;48.218;16.414;2023-09-19T17:48:00;21.50;99.90
39103;DHT22;24847;48.218;16.414;2023-09-19T17:53:07;21.60;99.90
39103;DHT22;24847;48.218;16.414;2023-09-19T17:58:14;21.60;99.90
39103;DHT22;24847;48.218;16.414;2023-09-19T18:03:23;21.50;99.90
39103;DHT22;24847;48.218;16.414;2023-09-19T18:08:29;21.60;99.90
39103;DHT22;24847;48.218;16.414;2023-09-19T18:13:35;21.50;99.90
39103;DHT22;24847;48.218;16.414;2023-09-19T18:18:43;21.50;99.90
39103;DHT22;24847;48.218;16.414;2023-09-19T18:23:55;21.40;99.90
39103;DHT22;24847;48.218;16.414;2023-09-19T18:29:00;21.40;99.90
39103;DHT22;24847;48.218;16.414;2023-09-19T18:34:08;21.30;99.90
39103;DHT22;24847;48.218;16.414;2023-09-19T18:39:15;21.30;99.90
39103;DHT22;24847;48.218;16.414;2023-09-19T18:44:21;21.30;99.90
39103;DHT22;24847;48.218;16.414;2023-09-19T18:49:36;21.30;99.90
39103;DHT22;24847;48.218;16.414;2023-09-19T18:54:40;21.20;99.90
39103;DHT22;24847;48.218;16.414;2023-09-19T18:59:49;21.20;99.90
39103;DHT22;24847;48.218;16.414;2023-09-19T19:04:56;21.20;99.90
39103;DHT22;24847;48.218;16.414;2023-09-19T19:10:00;21.10;99.90
39103;DHT22;24847;48.218;16.414;2023-09-19T19:15:05;21.00;99.90
39103;DHT22;24847;48.218;16.414;2023-09-19T19:20:16;21.00;99.90
39103;DHT22;24847;48.218;16.414;2023-09-19T19:25:24;20.90;99.90
39103;DHT22;24847;48.218;16.414;2023-09-19T19:30:29;20.90;99.90
39103;DHT22;24847;48.218;16.414;2023-09-19T19:35:35;20.90;99.90
39103;DHT22;24847;48.218;16.414;2023-09-19T19:40:41;20.80;99.90
39103;DHT22;24847;48.218;16.414;2023-09-19T19:45:53;20.80;99.90
39103;DHT22;24847;48.218;16.414;2023-09-19T19:51:00;20.80;99.90
39103;DHT22;24847;48.218;16.414;2023-09-19T19:56:08;20.80;99.90
39103;DHT22;24847;48.218;16.414;2023-09-19T20:01:11;20.70;99.90
39103;DHT22;24847;48.218;16.414;2023-09-19T20:06:19;20.70;99.90
39103;DHT22;24847;48.218;16.414;2023-09-19T20:11:25;20.60;99.90
39103;DHT22;24847;48.218;16.414;2023-09-19T20:16:30;20.50;99.90
39103;DHT22;24847;48.218;16.414;2023-09-19T20:21:39;20.50;99.90
39103;DHT22;24847;48.218;16.414;2023-09-19T20:26:42;20.30;99.90
39103;DHT22;24847;48.218;16.414;2023-09-19T20:31:47;20.20;99.90
39103;DHT22;24847;48.218;16.414;2023-09-19T20:36:54;20.20;99.90
39103;DHT22;24847;48.218;16.414;2023-09-19T20:41:58;20.20;99.90
39103;DHT22;24847;48.218;16.414;2023-09-19T20:47:02;19.70;99.90
39103;DHT22;24847;48.218;16.414;2023-09-19T20:52:07;19.90;99.90
39103;DHT22;24847;48.218;16.414;2023-09-19T20:57:10;20.00;99.90
39103;DHT22;24847;48.218;16.414;2023-09-19T21:02:12;20.20;99.90
39103;DHT22;24847;48.218;16.414;2023-09-19T21:07:16;20.10;99.90
39103;DHT22;24847;48.218;16.414;2023-09-19T21:12:18;20.20;99.90
39103;DHT22;24847;48.218;16.414;2023-09-19T21:17:20;20.10;99.90
39103;DHT22;24847;48.218;16.414;2023-09-19T21:22:24;20.10;99.90
39103;DHT22;24847;48.218;16.414;2023-09-19T21:27:27;20.10;99.90
39103;DHT22;24847;48.218;16.414;2023-09-19T21:32:31;20.20;99.90
39103;DHT22;24847;48.218;16.414;2023-09-19T21:37:36;20.20;99.90
39103;DHT22;24847;48.218;16.414;2023-09-19T21:42:38;20.20;99.90
39103;DHT22;24847;48.218;16.414;2023-09-19T21:47:40;20.20;99.90
39103;DHT22;24847;48.218;16.414;2023-09-19T21:52:44;20.10;99.90
39103;DHT22;24847;48.218;16.414;2023-09-19T21:57:47;20.00;99.90
39103;DHT22;24847;48.218;16.414;2023-09-19T22:02:49;20.00;99.90
39103;DHT22;24847;48.218;16.414;2023-09-19T22:07:54;19.80;99.90
39103;DHT22;24847;48.218;16.414;2023-09-19T22:12:59;19.20;99.90
39103;DHT22;24847;48.218;16.414;2023-09-19T22:18:02;18.90;99.90
39103;DHT22;24847;48.218;16.414;2023-09-19T22:23:07;18.70;99.90
39103;DHT22;24847;48.218;16.414;2023-09-19T22:28:13;19.10;99.90
39103;DHT22;24847;48.218;16.414;2023-09-19T22:33:16;19.20;99.90
39103;DHT22;24847;48.218;16.414;2023-09-19T22:38:21;19.40;99.90
39103;DHT22;24847;48.218;16.414;2023-09-19T22:43:24;19.40;99.90
39103;DHT22;24847;48.218;16.414;2023-09-19T22:48:32;19.50;99.90
39103;DHT22;24847;48.218;16.414;2023-09-19T22:53:36;19.40;99.90
39103;DHT22;24847;48.218;16.414;2023-09-19T22:58:43;19.30;99.90
39103;DHT22;24847;48.218;16.414;2023-09-19T23:03:45;19.10;99.90
39103;DHT22;24847;48.218;16.414;2023-09-19T23:08:53;19.20;99.90
39103;DHT22;24847;48.218;16.414;2023-09-19T23:13:55;19.00;99.90
39103;DHT22;24847;48.218;16.414;2023-09-19T23:18:59;18.60;99.90
39103;DHT22;24847;48.218;16.414;2023-09-19T23:24:05;18.70;99.90
39103;DHT22;24847;48.218;16.414;2023-09-19T23:29:08;18.60;99.90
39103;DHT22;24847;48.218;16.414;2023-09-19T23:34:11;18.70;99.90
39103;DHT22;24847;48.218;16.414;2023-09-19T23:39:15;18.80;99.90
39103;DHT22;24847;48.218;16.414;2023-09-19T23:44:19;18.90;99.90
39103;DHT22;24847;48.218;16.414;2023-09-19T23:49:22;19.00;99.90
39103;DHT22;24847;48.218;16.414;2023-09-19T23:54:26;18.80;99.90
39103;DHT22;24847;48.218;16.414;2023-09-19T23:59:28;18.90;99.90
